Flight Track Log - Related Links

Times and Time Zones

All times are in EDT time to prevent confusion due to time zone crossing. See the CES5700 flight status page for this flight to view local times or setup timezone preferences in your user account.

Time Position Orientation Groundspeed Altitude Reporting Facility
EDT Latitude Longitude Course Direction KTS MPH feet Rate Location/Type
Sun 04:25:00 AM 35.8515 113.2044 31° Northeast  Level Estimated
Sun 04:26:00 AM 35.9306 113.2635 31° Northeast  Level Estimated
Sun 04:27:00 AM 36.0097 113.3228 31° Northeast  Level Estimated
Sun 04:28:00 AM 36.0887 113.3822 31° Northeast  Level Estimated
Sun 04:29:00 AM 36.1677 113.4417 31° Northeast  Level Estimated
Sun 04:30:00 AM 36.2467 113.5013 31° Northeast  Level Estimated
Sun 04:31:00 AM 36.3257 113.5611 31° Northeast  Level Estimated
Sun 04:32:00 AM 36.4046 113.6209 31° Northeast  Level Estimated
Sun 04:33:00 AM 36.4835 113.6809 31° Northeast  Level Estimated
Sun 04:34:00 AM 36.5624 113.7411 31° Northeast  Level Estimated
Sun 04:35:00 AM 36.6412 113.8013 32° Northeast  Level Estimated
Sun 04:36:00 AM 36.7200 113.8616 32° Northeast  Level Estimated
Sun 04:37:00 AM 36.7988 113.9221 32° Northeast  Level Estimated
Sun 04:38:00 AM 36.8775 113.9827 32° Northeast  Level Estimated
Sun 04:39:00 AM 36.9562 114.0435 32° Northeast  Level Estimated
Sun 04:40:00 AM 37.0349 114.1043 32° Northeast  Level Estimated
Sun 04:41:00 AM 37.1135 114.1653 32° Northeast  Level Estimated
Sun 04:42:00 AM 37.1922 114.2265 32° Northeast  Level Estimated
Sun 04:43:00 AM 37.2708 114.2877 32° Northeast  Level Estimated
Sun 04:44:00 AM 37.3493 114.3491 32° Northeast  Level Estimated
Sun 04:45:00 AM 37.4278 114.4106 32° Northeast  Level Estimated
Sun 04:46:00 AM 37.5063 114.4722 32° Northeast  Level Estimated
Sun 04:47:00 AM 37.5848 114.5340 32° Northeast  Level Estimated
Sun 04:48:00 AM 37.6632 114.5958 32° Northeast  Level Estimated
Sun 04:49:00 AM 37.7416 114.6579 32° Northeast  Level Estimated
Sun 04:50:00 AM 37.8200 114.7200 32° Northeast  Level Estimated
Sun 04:51:00 AM 37.8983 114.7823 32° Northeast  Level Estimated
Sun 04:52:00 AM 37.9766 114.8447 32° Northeast  Level Estimated
Sun 04:53:00 AM 38.0549 114.9073 32° Northeast  Level Estimated
Sun 04:54:00 AM 38.1331 114.9699 32° Northeast  Level Estimated
Sun 04:55:00 AM 38.2113 115.0328 32° Northeast  Level Estimated
Sun 04:56:00 AM 38.2895 115.0957 32° Northeast  Level Estimated
Sun 04:57:00 AM 38.3676 115.1588 32° Northeast  Level Estimated
Sun 04:58:00 AM 38.4457 115.2220 32° Northeast  Level Estimated
Sun 04:59:00 AM 38.5238 115.2854 32° Northeast  Level Estimated
Sun 05:00:00 AM 38.6018 115.3489 32° Northeast  Level Estimated
Sun 05:01:00 AM 38.6798 115.4125 32° Northeast  Level Estimated
Sun 05:02:00 AM 38.7577 115.4763 33° Northeast  Level Estimated
Sun 05:03:00 AM 38.8357 115.5402 33° Northeast  Level Estimated
Sun 05:04:00 AM 38.9135 115.6043 33° Northeast  Level Estimated
Sun 05:04:17 AM 39.1500 116.4060 33° Northeast 326 375 13,700  Level FlightAware ADS-B
Sun 05:05:00 AM 38.9914 115.6685 33° Northeast  Level Estimated
Sun 05:05:08 AM 39.2260 116.4100 North 324 373 12,400  Level FlightAware ADS-B
Sun 05:05:48 AM 39.2830 116.4140 North 298 343 12,000 -539 Descending FlightAware ADS-B
Sun 05:06:37 AM 39.3510 116.4180 North 296 341 11,600 -847 Descending FlightAware ADS-B
Sun 05:07:13 AM 39.3990 116.4220 North 295 339 10,800 -1,304 Descending FlightAware ADS-B
Sun 05:07:23 AM 39.4120 116.4290 23° Northeast 295 339 10,600 -1,448 Descending FlightAware ADS-B
Sun 05:07:42 AM 39.4320 116.4540 44° Northeast 291 335 10,100 -806 Descending FlightAware ADS-B
Sun 05:08:30 AM 39.4640 116.5080 52° Northeast 293 337 9,700 -400 Descending FlightAware ADS-B
Sun 05:08:42 AM 39.4730 116.5220 50° Northeast 293 337 9,700  Level FlightAware ADS-B
Sun 05:09:18 AM 39.4980 116.5640 52° Northeast 293 337 9,700  Level FlightAware ADS-B
Sun 05:09:42 AM 39.5150 116.5920 52° Northeast 293 337 9,700  Level FlightAware ADS-B
Sun 05:09:54 AM 39.5240 116.6070 52° Northeast 293 337 9,700 -1,006 Level FlightAware ADS-B
Sun 05:11:53 AM 39.6840 116.6350 358° North 7,100 -1,087 Descending FlightAware ADS-B
Sun 05:12:00 AM 39.7556 116.5977 358° North  Level Estimated
Sun 05:12:23 AM 39.7160 116.6300 353° North 225 259 7,000  Level FlightAware ADS-B
Sun 05:14:28 AM 39.8450 116.6100 353° North 206 237 4,700 -1,123 Descending FlightAware ADS-B
Sun 05:14:58 AM 39.8720 116.6060 354° North 201 231 4,100 -1,200 Descending FlightAware ADS-B
Sun 05:15:08 AM 39.8820 116.6040 351° North 201 231 3,900 -1,029 Descending FlightAware ADS-B
Sun 05:15:33 AM 39.9050 116.6010 354° North 196 226 3,500 -982 Descending FlightAware ADS-B
Sun 05:16:03 AM 39.9320 116.5970 354° North 188 216 3,000 -627 Descending FlightAware ADS-B
Sun 05:16:40 AM 39.9590 116.5920 352° North 188 216 2,800 -900 Descending FlightAware ADS-B
Sun 05:17:23 AM 39.9930 116.5870 354° North 151 174 1,800 -1,167 Descending FlightAware ADS-B
Sun 05:17:52 AM 40.0140 116.5840 354° North 151 174 1,400 -436 Descending FlightAware ADS-B
Sun 05:18:18 AM 40.0290 116.5820 354° North 151 174 1,400  Level FlightAware ADS-B
Sun 05:20:00 AM 40.0801 116.5846 North  Level Estimated
Sun 05:21:00 AM 40.0801 116.5846 288° West  Level Estimated
Sun 05:22:00 AM 40.0801 116.5846 288° West  Level Estimated
Sun 05:23:00 AM 40.0801 116.5846 288° West  Level Estimated
Sun 05:24:00 AM 40.0801 116.5846 288° West  Level Estimated

Login

Don't have an account? Register now (free) for customized features, flight alerts, and more!